sensor_id;sensor_type;location;lat;lon;timestamp;pressure;altitude;pressure_sealevel;temperature;humidity
53932;BME280;39844;52.496;13.482;2023-03-21T00:01:28;101457.41;;;9.64;65.86
53932;BME280;39844;52.496;13.482;2023-03-21T00:03:53;101464.38;;;9.61;65.56
53932;BME280;39844;52.496;13.482;2023-03-21T00:06:19;101461.72;;;9.59;65.71
53932;BME280;39844;52.496;13.482;2023-03-21T00:08:44;101456.44;;;9.56;66.47
53932;BME280;39844;52.496;13.482;2023-03-21T00:11:10;101452.94;;;9.52;66.08
53932;BME280;39844;52.496;13.482;2023-03-21T00:13:35;101453.78;;;9.50;65.92
53932;BME280;39844;52.496;13.482;2023-03-21T00:16:12;101452.00;;;9.47;66.71
53932;BME280;39844;52.496;13.482;2023-03-21T00:18:38;101444.97;;;9.45;66.52
53932;BME280;39844;52.496;13.482;2023-03-21T00:21:04;101443.19;;;9.44;67.00
53932;BME280;39844;52.496;13.482;2023-03-21T00:23:31;101447.56;;;9.42;67.80
53932;BME280;39844;52.496;13.482;2023-03-21T00:25:57;101449.28;;;9.40;68.03
53932;BME280;39844;52.496;13.482;2023-03-21T00:28:23;101451.84;;;9.37;67.76
53932;BME280;39844;52.496;13.482;2023-03-21T00:30:58;101443.09;;;9.36;67.43
53932;BME280;39844;52.496;13.482;2023-03-21T00:33:23;101436.97;;;9.34;67.57
53932;BME280;39844;52.496;13.482;2023-03-21T00:35:50;101431.72;;;9.33;67.85
53932;BME280;39844;52.496;13.482;2023-03-21T00:38:15;101436.09;;;9.32;67.96
53932;BME280;39844;52.496;13.482;2023-03-21T00:40:41;101441.31;;;9.32;68.07
53932;BME280;39844;52.496;13.482;2023-03-21T00:43:06;101436.94;;;9.30;68.28
53932;BME280;39844;52.496;13.482;2023-03-21T00:45:31;101435.16;;;9.29;68.80
53932;BME280;39844;52.496;13.482;2023-03-21T00:47:57;101434.25;;;9.28;68.63
53932;BME280;39844;52.496;13.482;2023-03-21T00:50:23;101426.41;;;9.27;68.13
53932;BME280;39844;52.496;13.482;2023-03-21T00:52:48;101434.25;;;9.28;67.58
53932;BME280;39844;52.496;13.482;2023-03-21T00:55:15;101429.03;;;9.28;68.10
53932;BME280;39844;52.496;13.482;2023-03-21T00:57:41;101426.41;;;9.28;68.73
53932;BME280;39844;52.496;13.482;2023-03-21T01:00:08;101420.31;;;9.28;68.75
53932;BME280;39844;52.496;13.482;2023-03-21T01:02:34;101421.16;;;9.27;68.80
53932;BME280;39844;52.496;13.482;2023-03-21T01:04:59;101424.63;;;9.26;69.43
53932;BME280;39844;52.496;13.482;2023-03-21T01:07:24;101428.13;;;9.25;68.76
53932;BME280;39844;52.496;13.482;2023-03-21T01:09:49;101430.72;;;9.23;69.34
53932;BME280;39844;52.496;13.482;2023-03-21T01:12:15;101424.63;;;9.23;70.00
53932;BME280;39844;52.496;13.482;2023-03-21T01:14:40;101421.06;;;9.21;70.77
53932;BME280;39844;52.496;13.482;2023-03-21T01:17:05;101421.91;;;9.18;71.69
53932;BME280;39844;52.496;13.482;2023-03-21T01:19:31;101416.63;;;9.14;71.78
53932;BME280;39844;52.496;13.482;2023-03-21T01:21:56;101423.56;;;9.10;71.87
53932;BME280;39844;52.496;13.482;2023-03-21T01:24:22;101418.31;;;9.09;72.38
53932;BME280;39844;52.496;13.482;2023-03-21T01:26:47;101424.38;;;9.05;71.97
53932;BME280;39844;52.496;13.482;2023-03-21T01:29:13;101420.81;;;9.03;72.43
53932;BME280;39844;52.496;13.482;2023-03-21T01:31:38;101424.31;;;9.02;72.57
53932;BME280;39844;52.496;13.482;2023-03-21T01:34:03;101422.50;;;8.98;73.37
53932;BME280;39844;52.496;13.482;2023-03-21T01:36:29;101420.78;;;8.97;73.35
53932;BME280;39844;52.496;13.482;2023-03-21T01:38:54;101416.38;;;8.94;74.19
53932;BME280;39844;52.496;13.482;2023-03-21T01:41:28;101423.31;;;8.92;74.22
53932;BME280;39844;52.496;13.482;2023-03-21T01:43:53;101420.66;;;8.89;75.07
53932;BME280;39844;52.496;13.482;2023-03-21T01:46:38;101425.84;;;8.87;74.28
53932;BME280;39844;52.496;13.482;2023-03-21T01:49:28;101420.59;;;8.84;73.66
53932;BME280;39844;52.496;13.482;2023-03-21T01:51:59;101421.47;;;8.85;73.40
53932;BME280;39844;52.496;13.482;2023-03-21T01:54:29;101423.22;;;8.86;73.70
53932;BME280;39844;52.496;13.482;2023-03-21T01:56:58;101418.00;;;8.86;73.49
53932;BME280;39844;52.496;13.482;2023-03-21T01:59:44;101424.13;;;8.86;72.91
53932;BME280;39844;52.496;13.482;2023-03-21T02:02:19;101418.00;;;8.87;73.63
53932;BME280;39844;52.496;13.482;2023-03-21T02:04:46;101416.22;;;8.85;73.99
53932;BME280;39844;52.496;13.482;2023-03-21T02:07:18;101420.59;;;8.84;74.19
53932;BME280;39844;52.496;13.482;2023-03-21T02:10:01;101420.56;;;8.83;73.60
53932;BME280;39844;52.496;13.482;2023-03-21T02:12:27;101418.84;;;8.83;73.36
53932;BME280;39844;52.496;13.482;2023-03-21T02:14:53;101419.69;;;8.82;73.77
53932;BME280;39844;52.496;13.482;2023-03-21T02:27:58;101414.38;;;8.78;74.46
53932;BME280;39844;52.496;13.482;2023-03-21T02:30:52;101417.00;;;8.76;74.28
53932;BME280;39844;52.496;13.482;2023-03-21T02:39:04;101413.47;;;8.74;75.53
53932;BME280;39844;52.496;13.482;2023-03-21T02:41:46;101414.28;;;8.70;75.10
53932;BME280;39844;52.496;13.482;2023-03-21T02:47:04;101409.03;;;8.70;75.89
53932;BME280;39844;52.496;13.482;2023-03-21T02:49:38;101411.59;;;8.67;75.95
53932;BME280;39844;52.496;13.482;2023-03-21T02:52:07;101415.09;;;8.66;76.65
53932;BME280;39844;52.496;13.482;2023-03-21T02:54:33;101411.59;;;8.64;76.72
53932;BME280;39844;52.496;13.482;2023-03-21T02:57:01;101411.59;;;8.64;76.66
53932;BME280;39844;52.496;13.482;2023-03-21T02:59:27;101413.28;;;8.62;76.59
53932;BME280;39844;52.496;13.482;2023-03-21T03:01:54;101407.19;;;8.62;77.51
53932;BME280;39844;52.496;13.482;2023-03-21T03:04:23;101410.59;;;8.59;77.46
53932;BME280;39844;52.496;13.482;2023-03-21T03:07:12;101408.88;;;8.58;77.54
53932;BME280;39844;52.496;13.482;2023-03-21T03:10:19;101407.09;;;8.56;78.12
53932;BME280;39844;52.496;13.482;2023-03-21T03:12:47;101414.88;;;8.54;77.95
53932;BME280;39844;52.496;13.482;2023-03-21T03:15:44;101410.50;;;8.52;78.34
53932;BME280;39844;52.496;13.482;2023-03-21T03:23:42;101421.78;;;8.49;78.77
53932;BME280;39844;52.496;13.482;2023-03-21T03:26:20;101423.50;;;8.47;79.19
53932;BME280;39844;52.496;13.482;2023-03-21T03:28:52;101420.00;;;8.45;79.47
53932;BME280;39844;52.496;13.482;2023-03-21T03:31:28;101423.44;;;8.44;80.00
53932;BME280;39844;52.496;13.482;2023-03-21T03:33:59;101420.81;;;8.43;80.49
53932;BME280;39844;52.496;13.482;2023-03-21T03:36:30;101420.81;;;8.41;81.10
53932;BME280;39844;52.496;13.482;2023-03-21T03:38:59;101419.88;;;8.39;81.17
53932;BME280;39844;52.496;13.482;2023-03-21T03:41:27;101430.34;;;8.39;82.26
53932;BME280;39844;52.496;13.482;2023-03-21T03:43:55;101428.59;;;8.38;82.83
53932;BME280;39844;52.496;13.482;2023-03-21T03:46:35;101430.31;;;8.36;83.09
53932;BME280;39844;52.496;13.482;2023-03-21T03:49:12;101424.16;;;8.33;83.16
53932;BME280;39844;52.496;13.482;2023-03-21T03:51:48;101420.66;;;8.32;83.41
53932;BME280;39844;52.496;13.482;2023-03-21T03:54:18;101431.09;;;8.31;83.20
53932;BME280;39844;52.496;13.482;2023-03-21T03:56:45;101426.75;;;8.31;83.13
53932;BME280;39844;52.496;13.482;2023-03-21T03:59:11;101431.09;;;8.31;83.67
53932;BME280;39844;52.496;13.482;2023-03-21T04:01:36;101424.09;;;8.28;84.42
53932;BME280;39844;52.496;13.482;2023-03-21T04:04:01;101421.38;;;8.25;85.33
53932;BME280;39844;52.496;13.482;2023-03-21T04:06:27;101425.72;;;8.23;85.83
53932;BME280;39844;52.496;13.482;2023-03-21T04:08:52;101421.31;;;8.22;86.59
53932;BME280;39844;52.496;13.482;2023-03-21T04:11:17;101418.69;;;8.20;86.97
53932;BME280;39844;52.496;13.482;2023-03-21T04:13:42;101416.91;;;8.19;87.05
53932;BME280;39844;52.496;13.482;2023-03-21T04:16:09;101420.38;;;8.17;86.67
53932;BME280;39844;52.496;13.482;2023-03-21T04:18:35;101418.63;;;8.16;87.06
53932;BME280;39844;52.496;13.482;2023-03-21T04:21:02;101419.53;;;8.18;87.43
53932;BME280;39844;52.496;13.482;2023-03-21T04:23:30;101416.03;;;8.17;87.44
53932;BME280;39844;52.496;13.482;2023-03-21T04:25:55;101419.53;;;8.18;87.15
53932;BME280;39844;52.496;13.482;2023-03-21T04:28:21;101422.13;;;8.18;87.30
53932;BME280;39844;52.496;13.482;2023-03-21T04:30:47;101412.56;;;8.18;87.42
53932;BME280;39844;52.496;13.482;2023-03-21T04:33:12;101420.38;;;8.17;86.38
53932;BME280;39844;52.496;13.482;2023-03-21T04:35:38;101419.47;;;8.16;86.67
53932;BME280;39844;52.496;13.482;2023-03-21T04:38:03;101416.00;;;8.16;86.41
53932;BME280;39844;52.496;13.482;2023-03-21T04:40:28;101418.63;;;8.16;86.82
53932;BME280;39844;52.496;13.482;2023-03-21T04:42:54;101424.75;;;8.18;86.85
53932;BME280;39844;52.496;13.482;2023-03-21T04:45:19;101415.13;;;8.17;87.17
53932;BME280;39844;52.496;13.482;2023-03-21T04:47:44;101430.81;;;8.17;87.22
53932;BME280;39844;52.496;13.482;2023-03-21T04:50:10;101418.63;;;8.16;86.77
53932;BME280;39844;52.496;13.482;2023-03-21T04:52:36;101422.97;;;8.15;86.53
53932;BME280;39844;52.496;13.482;2023-03-21T04:55:02;101417.75;;;8.17;87.10
53932;BME280;39844;52.496;13.482;2023-03-21T04:57:27;101417.75;;;8.17;87.54
53932;BME280;39844;52.496;13.482;2023-03-21T04:59:52;101421.25;;;8.17;87.63
53932;BME280;39844;52.496;13.482;2023-03-21T05:02:18;101421.25;;;8.16;87.34
53932;BME280;39844;52.496;13.482;2023-03-21T05:04:43;101423.88;;;8.17;87.44
53932;BME280;39844;52.496;13.482;2023-03-21T05:07:09;101422.97;;;8.17;87.78
53932;BME280;39844;52.496;13.482;2023-03-21T05:09:34;101419.53;;;8.18;88.06
53932;BME280;39844;52.496;13.482;2023-03-21T05:11:59;101423.88;;;8.19;88.51
53932;BME280;39844;52.496;13.482;2023-03-21T05:14:25;101422.13;;;8.18;88.62
53932;BME280;39844;52.496;13.482;2023-03-21T05:16:51;101420.38;;;8.17;88.83
53932;BME280;39844;52.496;13.482;2023-03-21T05:19:16;101421.25;;;8.19;89.13
53932;BME280;39844;52.496;13.482;2023-03-21T05:21:42;101416.91;;;8.19;89.09
53932;BME280;39844;52.496;13.482;2023-03-21T05:24:08;101419.53;;;8.19;89.31
53932;BME280;39844;52.496;13.482;2023-03-21T05:26:34;101409.13;;;8.21;89.81
53932;BME280;39844;52.496;13.482;2023-03-21T05:28:59;101410.84;;;8.22;89.77
53932;BME280;39844;52.496;13.482;2023-03-21T05:31:24;101411.75;;;8.22;89.70
53932;BME280;39844;52.496;13.482;2023-03-21T05:33:49;101419.53;;;8.19;89.40
53932;BME280;39844;52.496;13.482;2023-03-21T05:36:15;101422.19;;;8.21;90.27
53932;BME280;39844;52.496;13.482;2023-03-21T05:38:40;101420.38;;;8.17;90.29
53932;BME280;39844;52.496;13.482;2023-03-21T05:41:05;101412.53;;;8.17;90.94
53932;BME280;39844;52.496;13.482;2023-03-21T05:43:31;101421.25;;;8.17;91.66
53932;BME280;39844;52.496;13.482;2023-03-21T05:45:56;101414.28;;;8.18;91.76
53932;BME280;39844;52.496;13.482;2023-03-21T05:48:21;101428.22;;;8.17;92.05
53932;BME280;39844;52.496;13.482;2023-03-21T05:50:47;101416.88;;;8.16;92.70
53932;BME280;39844;52.496;13.482;2023-03-21T05:53:12;101426.47;;;8.16;92.59
53932;BME280;39844;52.496;13.482;2023-03-21T05:55:37;101424.69;;;8.15;92.48
53932;BME280;39844;52.496;13.482;2023-03-21T05:58:03;101419.47;;;8.15;93.24
53932;BME280;39844;52.496;13.482;2023-03-21T06:00:28;101418.63;;;8.16;92.88
53932;BME280;39844;52.496;13.482;2023-03-21T06:02:53;101426.50;;;8.19;92.62
53932;BME280;39844;52.496;13.482;2023-03-21T06:05:19;101427.50;;;8.25;93.72
53932;BME280;39844;52.496;13.482;2023-03-21T06:07:44;101431.09;;;8.31;93.42
53932;BME280;39844;52.496;13.482;2023-03-21T06:10:10;101426.75;;;8.31;93.09
53932;BME280;39844;52.496;13.482;2023-03-21T06:12:35;101428.53;;;8.34;92.79
53932;BME280;39844;52.496;13.482;2023-03-21T06:15:01;101430.28;;;8.33;92.49
53932;BME280;39844;52.496;13.482;2023-03-21T06:17:27;101433.72;;;8.32;92.20
53932;BME280;39844;52.496;13.482;2023-03-21T06:19:52;101432.00;;;8.34;92.75
53932;BME280;39844;52.496;13.482;2023-03-21T06:22:17;101432.06;;;8.36;92.94
53932;BME280;39844;52.496;13.482;2023-03-21T06:24:42;101433.84;;;8.38;93.31
53932;BME280;39844;52.496;13.482;2023-03-21T06:27:08;101435.63;;;8.41;93.71
53932;BME280;39844;52.496;13.482;2023-03-21T06:29:33;101435.63;;;8.42;93.00
53932;BME280;39844;52.496;13.482;2023-03-21T06:31:58;101437.41;;;8.45;93.00
53932;BME280;39844;52.496;13.482;2023-03-21T06:34:24;101430.47;;;8.47;92.56
53932;BME280;39844;52.496;13.482;2023-03-21T06:36:49;101437.50;;;8.49;93.04
53932;BME280;39844;52.496;13.482;2023-03-21T06:39:14;101439.31;;;8.53;93.16
53932;BME280;39844;52.496;13.482;2023-03-21T06:41:40;101435.81;;;8.54;93.01
53932;BME280;39844;52.496;13.482;2023-03-21T06:44:05;101441.94;;;8.55;92.58
53932;BME280;39844;52.496;13.482;2023-03-21T06:46:30;101441.97;;;8.56;92.41
53932;BME280;39844;52.496;13.482;2023-03-21T06:48:56;101437.59;;;8.55;92.15
53932;BME280;39844;52.496;13.482;2023-03-21T06:51:21;101440.22;;;8.55;92.44
53932;BME280;39844;52.496;13.482;2023-03-21T06:53:46;101444.59;;;8.56;92.21
53932;BME280;39844;52.496;13.482;2023-03-21T06:56:13;101446.38;;;8.59;92.64
53932;BME280;39844;52.496;13.482;2023-03-21T06:58:39;101449.00;;;8.60;92.54
53932;BME280;39844;52.496;13.482;2023-03-21T07:01:05;101444.69;;;8.62;92.71
53932;BME280;39844;52.496;13.482;2023-03-21T07:03:31;101439.44;;;8.62;91.92
53932;BME280;39844;52.496;13.482;2023-03-21T07:05:56;101441.22;;;8.63;92.17
53932;BME280;39844;52.496;13.482;2023-03-21T07:08:22;101454.31;;;8.65;92.21
53932;BME280;39844;52.496;13.482;2023-03-21T07:10:47;101451.75;;;8.66;92.71
53932;BME280;39844;52.496;13.482;2023-03-21T07:13:13;101445.63;;;8.67;92.93
53932;BME280;39844;52.496;13.482;2023-03-21T07:15:39;101454.41;;;8.69;93.25
53932;BME280;39844;52.496;13.482;2023-03-21T07:18:05;101446.56;;;8.69;93.14
53932;BME280;39844;52.496;13.482;2023-03-21T07:20:31;101446.56;;;8.71;93.54
53932;BME280;39844;52.496;13.482;2023-03-21T07:22:56;101447.41;;;8.70;93.37
53932;BME280;39844;52.496;13.482;2023-03-21T07:25:23;101444.78;;;8.70;93.75
53932;BME280;39844;52.496;13.482;2023-03-21T07:27:49;101443.06;;;8.70;94.27
53932;BME280;39844;52.496;13.482;2023-03-21T07:30:14;101444.84;;;8.71;94.85
53932;BME280;39844;52.496;13.482;2023-03-21T07:32:40;101450.06;;;8.71;95.19
53932;BME280;39844;52.496;13.482;2023-03-21T07:35:07;101455.31;;;8.71;95.28
53932;BME280;39844;52.496;13.482;2023-03-21T07:37:34;101451.81;;;8.72;95.33
53932;BME280;39844;52.496;13.482;2023-03-21T07:39:59;101457.91;;;8.71;95.68
53932;BME280;39844;52.496;13.482;2023-03-21T07:42:24;101465.81;;;8.74;95.98
53932;BME280;39844;52.496;13.482;2023-03-21T07:44:50;101447.47;;;8.73;95.90
53932;BME280;39844;52.496;13.482;2023-03-21T07:47:15;101459.72;;;8.75;96.27
53932;BME280;39844;52.496;13.482;2023-03-21T07:49:40;101452.75;;;8.76;96.20
53932;BME280;39844;52.496;13.482;2023-03-21T07:52:06;101452.75;;;8.76;96.52
53932;BME280;39844;52.496;13.482;2023-03-21T07:54:31;101452.75;;;8.77;96.39
53932;BME280;39844;52.496;13.482;2023-03-21T07:56:56;101458.88;;;8.78;96.78
53932;BME280;39844;52.496;13.482;2023-03-21T07:59:22;101451.06;;;8.79;96.86
53932;BME280;39844;52.496;13.482;2023-03-21T08:01:47;101448.44;;;8.79;96.57
53932;BME280;39844;52.496;13.482;2023-03-21T08:04:13;101458.03;;;8.80;97.11
53932;BME280;39844;52.496;13.482;2023-03-21T08:06:38;101448.47;;;8.82;97.32
53932;BME280;39844;52.496;13.482;2023-03-21T08:09:03;101449.34;;;8.83;97.35
53932;BME280;39844;52.496;13.482;2023-03-21T08:11:29;101444.16;;;8.84;97.07
53932;BME280;39844;52.496;13.482;2023-03-21T08:13:54;101448.56;;;8.88;97.72
53932;BME280;39844;52.496;13.482;2023-03-21T08:16:22;101449.47;;;8.90;97.37
53932;BME280;39844;52.496;13.482;2023-03-21T08:18:47;101445.19;;;8.96;97.85
53932;BME280;39844;52.496;13.482;2023-03-21T08:21:12;101440.88;;;8.99;98.16
53932;BME280;39844;52.496;13.482;2023-03-21T08:23:38;101459.28;;;9.05;97.85
53932;BME280;39844;52.496;13.482;2023-03-21T08:26:03;101448.88;;;9.10;97.88
53932;BME280;39844;52.496;13.482;2023-03-21T08:28:28;101443.72;;;9.16;97.54
53932;BME280;39844;52.496;13.482;2023-03-21T08:30:54;101450.72;;;9.18;96.84
53932;BME280;39844;52.496;13.482;2023-03-21T08:33:20;101446.41;;;9.22;96.65
53932;BME280;39844;52.496;13.482;2023-03-21T08:35:46;101442.13;;;9.27;96.96
53932;BME280;39844;52.496;13.482;2023-03-21T08:38:11;101450.03;;;9.31;96.64
53932;BME280;39844;52.496;13.482;2023-03-21T08:40:37;101450.91;;;9.32;95.98
53932;BME280;39844;52.496;13.482;2023-03-21T08:43:02;101443.94;;;9.34;96.50
53932;BME280;39844;52.496;13.482;2023-03-21T08:45:28;101447.50;;;9.39;97.48
53932;BME280;39844;52.496;13.482;2023-03-21T08:47:54;101451.94;;;9.43;97.24
53932;BME280;39844;52.496;13.482;2023-03-21T08:50:21;101457.28;;;9.50;97.97
53932;BME280;39844;52.496;13.482;2023-03-21T08:52:47;101446.84;;;9.55;98.27
53932;BME280;39844;52.496;13.482;2023-03-21T08:55:14;101445.16;;;9.60;97.95
53932;BME280;39844;52.496;13.482;2023-03-21T08:57:40;101446.09;;;9.67;98.48
53932;BME280;39844;52.496;13.482;2023-03-21T09:00:06;101442.69;;;9.75;98.88
53932;BME280;39844;52.496;13.482;2023-03-21T09:02:32;101452.34;;;9.79;97.83
53932;BME280;39844;52.496;13.482;2023-03-21T09:04:57;101451.53;;;9.83;97.82
53932;BME280;39844;52.496;13.482;2023-03-21T09:07:23;101448.06;;;9.86;97.41
53932;BME280;39844;52.496;13.482;2023-03-21T09:09:49;101448.03;;;9.84;96.77
53932;BME280;39844;52.496;13.482;2023-03-21T09:12:14;101455.00;;;9.81;96.79
53932;BME280;39844;52.496;13.482;2023-03-21T09:14:39;101447.97;;;9.78;96.45
53932;BME280;39844;52.496;13.482;2023-03-21T09:17:04;101453.19;;;9.75;96.89
53932;BME280;39844;52.496;13.482;2023-03-21T09:19:30;101455.81;;;9.75;97.53
53932;BME280;39844;52.496;13.482;2023-03-21T09:21:55;101458.44;;;9.77;97.43
53932;BME280;39844;52.496;13.482;2023-03-21T09:24:20;101453.19;;;9.75;97.17
53932;BME280;39844;52.496;13.482;2023-03-21T09:26:46;101455.81;;;9.75;96.90
53932;BME280;39844;52.496;13.482;2023-03-21T09:29:11;101451.44;;;9.76;97.16
53932;BME280;39844;52.496;13.482;2023-03-21T09:31:36;101452.34;;;9.78;97.33
53932;BME280;39844;52.496;13.482;2023-03-21T09:34:02;101448.88;;;9.80;97.13
53932;BME280;39844;52.496;13.482;2023-03-21T09:36:27;101447.19;;;9.87;97.53
53932;BME280;39844;52.496;13.482;2023-03-21T09:38:53;101451.63;;;9.92;97.75
53932;BME280;39844;52.496;13.482;2023-03-21T09:41:29;101448.13;;;9.93;96.79
53932;BME280;39844;52.496;13.482;2023-03-21T09:44:04;101447.34;;;9.99;97.60
53932;BME280;39844;52.496;13.482;2023-03-21T09:46:44;101452.63;;;10.03;97.19
53932;BME280;39844;52.496;13.482;2023-03-21T09:49:18;101440.38;;;10.07;97.28
53932;BME280;39844;52.496;13.482;2023-03-21T09:51:45;101445.75;;;10.13;97.13
53932;BME280;39844;52.496;13.482;2023-03-21T09:54:21;101447.59;;;10.22;97.32
53932;BME280;39844;52.496;13.482;2023-03-21T09:56:50;101433.59;;;10.24;96.16
53932;BME280;39844;52.496;13.482;2023-03-21T09:59:31;101442.41;;;10.29;95.76
53932;BME280;39844;52.496;13.482;2023-03-21T10:01:58;101438.03;;;10.31;94.89
53932;BME280;39844;52.496;13.482;2023-03-21T10:04:23;101439.81;;;10.34;94.56
53932;BME280;39844;52.496;13.482;2023-03-21T10:06:57;101438.06;;;10.36;94.21
53932;BME280;39844;52.496;13.482;2023-03-21T10:09:25;101435.47;;;10.37;93.96
53932;BME280;39844;52.496;13.482;2023-03-21T10:11:56;101434.63;;;10.40;93.15
53932;BME280;39844;52.496;13.482;2023-03-21T10:14:35;101426.78;;;10.44;93.10
53932;BME280;39844;52.496;13.482;2023-03-21T10:17:27;101425.94;;;10.50;91.66
53932;BME280;39844;52.496;13.482;2023-03-21T10:19:59;101412.88;;;10.60;91.92
53932;BME280;39844;52.496;13.482;2023-03-21T10:22:31;101422.56;;;10.69;90.37
53932;BME280;39844;52.496;13.482;2023-03-21T10:24:56;101415.59;;;10.74;89.61
53932;BME280;39844;52.496;13.482;2023-03-21T10:27:22;101416.47;;;10.73;88.63
53932;BME280;39844;52.496;13.482;2023-03-21T10:29:47;101413.84;;;10.71;88.09
53932;BME280;39844;52.496;13.482;2023-03-21T10:32:15;101414.69;;;10.69;87.09
53932;BME280;39844;52.496;13.482;2023-03-21T10:34:45;101411.22;;;10.71;88.01
53932;BME280;39844;52.496;13.482;2023-03-21T10:37:12;101408.59;;;10.76;87.71
53932;BME280;39844;52.496;13.482;2023-03-21T10:39:40;101406.91;;;10.84;88.10
53932;BME280;39844;52.496;13.482;2023-03-21T10:42:18;101408.69;;;10.91;86.82
53932;BME280;39844;52.496;13.482;2023-03-21T10:44:49;101403.53;;;11.03;87.56
53932;BME280;39844;52.496;13.482;2023-03-21T10:47:20;101398.31;;;11.12;86.57
53932;BME280;39844;52.496;13.482;2023-03-21T10:49:46;101391.31;;;11.17;84.47
53932;BME280;39844;52.496;13.482;2023-03-21T10:52:16;101394.84;;;11.22;84.92
53932;BME280;39844;52.496;13.482;2023-03-21T10:54:42;101383.47;;;11.26;83.17
53932;BME280;39844;52.496;13.482;2023-03-21T10:57:14;101394.88;;;11.28;83.58
53932;BME280;39844;52.496;13.482;2023-03-21T11:02:17;101394.00;;;11.34;82.85
53932;BME280;39844;52.496;13.482;2023-03-21T11:04:43;101392.25;;;11.34;82.49
53932;BME280;39844;52.496;13.482;2023-03-21T11:07:12;101385.25;;;11.36;82.66
53932;BME280;39844;52.496;13.482;2023-03-21T11:09:52;101388.78;;;11.38;81.99
53932;BME280;39844;52.496;13.482;2023-03-21T11:12:38;101378.28;;;11.38;81.50
53932;BME280;39844;52.496;13.482;2023-03-21T11:17:58;101386.16;;;11.44;81.59
53932;BME280;39844;52.496;13.482;2023-03-21T11:20:23;101386.16;;;11.43;81.34
53932;BME280;39844;52.496;13.482;2023-03-21T11:22:53;101381.78;;;11.43;81.71
53932;BME280;39844;52.496;13.482;2023-03-21T11:25:40;101379.16;;;11.50;81.92
53932;BME280;39844;52.496;13.482;2023-03-21T11:28:15;101372.16;;;11.55;81.80
53932;BME280;39844;52.496;13.482;2023-03-21T11:31:08;101373.94;;;11.60;81.05
53932;BME280;39844;52.496;13.482;2023-03-21T11:33:36;101363.44;;;11.62;80.92
53932;BME280;39844;52.496;13.482;2023-03-21T11:38:48;101356.44;;;11.67;80.24
53932;BME280;39844;52.496;13.482;2023-03-21T11:41:22;101351.16;;;11.65;80.12
53932;BME280;39844;52.496;13.482;2023-03-21T11:43:52;101361.69;;;11.67;79.81
53932;BME280;39844;52.496;13.482;2023-03-21T11:46:23;101352.97;;;11.74;79.73
53932;BME280;39844;52.496;13.482;2023-03-21T11:48:48;101350.31;;;11.80;79.68
53932;BME280;39844;52.496;13.482;2023-03-21T11:53:50;101345.97;;;11.82;79.29
53932;BME280;39844;52.496;13.482;2023-03-21T11:56:37;101350.34;;;11.83;79.36
53932;BME280;39844;52.496;13.482;2023-03-21T11:59:17;101349.47;;;11.81;79.04
53932;BME280;39844;52.496;13.482;2023-03-21T12:07:15;101332.81;;;11.91;78.42
53932;BME280;39844;52.496;13.482;2023-03-21T12:09:55;101330.19;;;11.97;78.23
53932;BME280;39844;52.496;13.482;2023-03-21T12:23:26;101312.63;;;12.29;77.26
53932;BME280;39844;52.496;13.482;2023-03-21T12:26:12;101314.38;;;12.35;76.71
53932;BME280;39844;52.496;13.482;2023-03-21T12:28:47;101306.47;;;12.35;76.59
53932;BME280;39844;52.496;13.482;2023-03-21T12:36:59;101303.84;;;12.30;76.98
53932;BME280;39844;52.496;13.482;2023-03-21T12:39:34;101298.59;;;12.30;77.04
53932;BME280;39844;52.496;13.482;2023-03-21T12:44:42;101292.41;;;12.34;77.33
53932;BME280;39844;52.496;13.482;2023-03-21T12:47:14;101284.53;;;12.40;77.49
53932;BME280;39844;52.496;13.482;2023-03-21T12:49:47;101284.50;;;12.48;77.26
53932;BME280;39844;52.496;13.482;2023-03-21T12:52:34;101287.97;;;12.51;76.51
53932;BME280;39844;52.496;13.482;2023-03-21T12:55:28;101289.75;;;12.55;76.17
53932;BME280;39844;52.496;13.482;2023-03-21T12:58:03;101278.31;;;12.58;75.41
53932;BME280;39844;52.496;13.482;2023-03-21T13:00:34;101266.91;;;12.60;75.95
53932;BME280;39844;52.496;13.482;2023-03-21T13:03:07;101271.28;;;12.61;75.57
53932;BME280;39844;52.496;13.482;2023-03-21T13:05:45;101271.28;;;12.60;75.21
53932;BME280;39844;52.496;13.482;2023-03-21T13:08:36;101264.25;;;12.59;75.41
53932;BME280;39844;52.496;13.482;2023-03-21T13:11:04;101255.47;;;12.58;76.08
53932;BME280;39844;52.496;13.482;2023-03-21T13:13:50;101264.28;;;12.60;75.60
53932;BME280;39844;52.496;13.482;2023-03-21T13:21:36;101243.16;;;12.71;75.35
53932;BME280;39844;52.496;13.482;2023-03-21T13:26:58;101236.13;;;12.73;74.71
53932;BME280;39844;52.496;13.482;2023-03-21T13:31:54;101237.84;;;12.74;74.56
53932;BME280;39844;52.496;13.482;2023-03-21T13:34:23;101235.25;;;12.73;74.39
53932;BME280;39844;52.496;13.482;2023-03-21T13:36:50;101227.38;;;12.68;74.50
53932;BME280;39844;52.496;13.482;2023-03-21T13:39:25;101230.00;;;12.62;74.40
53932;BME280;39844;52.496;13.482;2023-03-21T13:41:51;101219.50;;;12.57;74.53
53932;BME280;39844;52.496;13.482;2023-03-21T13:47:02;101222.19;;;12.47;74.81
53932;BME280;39844;52.496;13.482;2023-03-21T13:49:32;101223.06;;;12.44;75.79
53932;BME280;39844;52.496;13.482;2023-03-21T13:51:59;101214.31;;;12.42;76.20
53932;BME280;39844;52.496;13.482;2023-03-21T13:54:43;101215.16;;;12.41;76.00
53932;BME280;39844;52.496;13.482;2023-03-21T14:05:33;101208.13;;;12.48;75.93
53932;BME280;39844;52.496;13.482;2023-03-21T14:08:09;101216.91;;;12.44;75.92
53932;BME280;39844;52.496;13.482;2023-03-21T14:10:42;101210.78;;;12.42;76.32
53932;BME280;39844;52.496;13.482;2023-03-21T14:13:14;101216.94;;;12.42;76.52
53932;BME280;39844;52.496;13.482;2023-03-21T14:15:43;101211.66;;;12.39;76.34
53932;BME280;39844;52.496;13.482;2023-03-21T14:18:18;101212.56;;;12.37;76.13